createdAt,value
2019-03-29T08:51:23.751Z,33.51
2019-03-29T08:51:24.500Z,33.76
2019-03-29T08:51:25.217Z,33.79
2019-03-29T08:51:25.959Z,33.74
2019-03-29T08:51:26.667Z,33.77
2019-03-29T08:51:27.395Z,33.82
2019-03-29T08:51:28.116Z,33.80
2019-03-29T08:51:28.879Z,33.79
2019-03-29T08:51:29.592Z,33.75
2019-03-29T08:51:30.318Z,33.72
2019-03-29T08:51:31.031Z,33.70
2019-03-29T08:51:31.744Z,33.69
2019-03-29T08:51:32.471Z,33.69
2019-03-29T08:51:33.186Z,33.60
2019-03-29T08:51:33.901Z,33.56
2019-03-29T08:51:34.691Z,33.56
2019-03-29T08:51:35.416Z,33.48
2019-03-29T08:51:36.127Z,33.45
2019-03-29T08:51:36.849Z,33.43
2019-03-29T08:51:37.563Z,33.42
2019-03-29T08:51:41.329Z,33.41
2019-03-29T08:51:42.360Z,33.39
2019-03-29T08:51:43.075Z,33.42
2019-03-29T08:51:43.790Z,33.40
2019-03-29T08:51:44.519Z,33.40
2019-03-29T08:51:45.232Z,33.35
2019-03-29T08:51:45.956Z,33.38
2019-03-29T08:51:46.677Z,33.43
2019-03-29T08:51:47.391Z,33.41
2019-03-29T08:51:48.113Z,33.35
2019-03-29T08:51:48.824Z,33.33
2019-03-29T08:51:49.544Z,33.36
2019-03-29T08:51:50.303Z,33.36
2019-03-29T08:51:51.039Z,33.38
2019-03-29T08:51:51.756Z,33.39
2019-03-29T08:51:52.473Z,33.36
2019-03-29T08:51:53.195Z,33.38
2019-03-29T08:51:53.926Z,33.33
2019-03-29T08:51:54.645Z,33.42
2019-03-29T08:51:55.392Z,33.32
2019-03-29T08:51:56.108Z,33.35
2019-03-29T08:51:56.826Z,33.38
2019-03-29T08:51:57.554Z,33.35
2019-03-29T08:51:58.275Z,33.36
2019-03-29T08:51:58.999Z,33.38
2019-03-29T08:51:59.738Z,33.43
2019-03-29T08:52:00.490Z,33.40
2019-03-29T08:52:01.211Z,33.46
2019-03-29T08:52:01.930Z,33.47
2019-03-29T08:52:02.654Z,33.47
2019-03-29T08:52:03.380Z,33.53
2019-03-29T08:52:04.110Z,33.56
2019-03-29T08:52:04.833Z,33.54
2019-03-29T08:52:05.572Z,33.54
2019-03-29T08:52:06.405Z,33.54
2019-03-29T08:52:07.147Z,33.46
2019-03-29T08:52:07.881Z,33.47
2019-03-29T08:52:08.594Z,33.49
2019-03-29T08:52:09.318Z,33.44
2019-03-29T08:52:10.041Z,33.47
2019-03-29T08:52:10.756Z,33.47
2019-03-29T08:52:11.483Z,33.49
2019-03-29T08:52:12.212Z,33.42
2019-03-29T08:52:12.948Z,33.46
2019-03-29T08:52:13.684Z,33.51
2019-03-29T08:52:14.411Z,33.61
2019-03-29T08:52:15.131Z,33.60
2019-03-29T08:52:15.857Z,33.57
2019-03-29T08:52:16.579Z,33.62
2019-03-29T08:52:17.307Z,33.61
2019-03-29T08:52:18.024Z,33.61
2019-03-29T08:52:18.737Z,33.65
2019-03-29T08:52:19.459Z,33.63
2019-03-29T08:52:20.212Z,33.64
2019-03-29T08:52:20.939Z,33.63
2019-03-29T08:52:21.686Z,33.64
2019-03-29T08:52:22.403Z,33.64
2019-03-29T08:52:23.122Z,33.63
2019-03-29T08:52:23.864Z,33.62
2019-03-29T08:52:24.589Z,33.60
2019-03-29T08:52:25.310Z,33.59
2019-03-29T08:52:26.073Z,33.58
2019-03-29T08:52:26.824Z,33.62
2019-03-29T08:52:27.539Z,33.59
2019-03-29T08:52:28.256Z,33.59
2019-03-29T08:52:28.976Z,33.60
2019-03-29T08:52:29.695Z,33.62
2019-03-29T08:52:30.411Z,33.59
2019-03-29T08:52:31.123Z,33.60
2019-03-29T08:52:31.861Z,33.57
2019-03-29T08:52:32.576Z,33.60
2019-03-29T08:52:33.289Z,33.60
2019-03-29T08:52:34.009Z,33.57
2019-03-29T08:52:34.729Z,33.57
2019-03-29T08:52:35.451Z,33.57
2019-03-29T08:52:36.177Z,33.54
2019-03-29T08:52:36.907Z,33.51
2019-03-29T08:52:37.641Z,33.51
2019-03-29T08:52:38.369Z,33.51
2019-03-29T08:52:39.089Z,33.51
2019-03-29T08:52:39.802Z,33.47
2019-03-29T08:52:40.523Z,33.48
2019-03-29T08:52:41.250Z,33.54
2019-03-29T08:52:41.971Z,33.54
2019-03-29T08:52:42.710Z,33.53
2019-03-29T08:52:43.435Z,33.53
2019-03-29T08:52:44.149Z,33.54
2019-03-29T08:52:44.867Z,33.61
2019-03-29T08:52:45.579Z,33.54
2019-03-29T08:52:46.337Z,33.54
2019-03-29T08:52:47.044Z,33.57
2019-03-29T08:52:47.837Z,33.55
2019-03-29T08:52:48.556Z,33.58
2019-03-29T08:52:49.283Z,33.54
2019-03-29T08:52:50.017Z,33.57
2019-03-29T08:52:50.808Z,33.61
2019-03-29T08:52:51.522Z,33.58
2019-03-29T08:52:52.232Z,33.57
2019-03-29T08:52:52.952Z,33.61
2019-03-29T08:52:53.662Z,33.57
2019-03-29T08:52:54.372Z,33.55
2019-03-29T08:52:55.087Z,33.57
2019-03-29T08:52:55.810Z,33.61
2019-03-29T08:52:56.538Z,33.60
2019-03-29T08:52:57.258Z,33.63
2019-03-29T08:52:57.975Z,33.60
2019-03-29T08:52:58.691Z,33.61
2019-03-29T08:52:59.417Z,33.60
2019-03-29T08:53:00.135Z,33.56
2019-03-29T08:53:00.847Z,33.53
2019-03-29T08:53:01.569Z,33.59
2019-03-29T08:53:02.303Z,33.55
2019-03-29T08:53:03.019Z,33.53
2019-03-29T08:53:03.734Z,33.57
2019-03-29T08:53:04.450Z,33.56
2019-03-29T08:53:05.175Z,33.57
2019-03-29T08:53:05.892Z,33.54
2019-03-29T08:53:06.604Z,33.55
2019-03-29T08:53:07.334Z,33.60
2019-03-29T08:53:08.089Z,33.54
2019-03-29T08:53:08.805Z,33.60
2019-03-29T08:53:09.521Z,33.55
2019-03-29T08:53:10.248Z,33.61
2019-03-29T08:53:10.978Z,33.64
2019-03-29T08:53:11.696Z,33.65
2019-03-29T08:53:12.415Z,33.62
2019-03-29T08:53:13.175Z,33.61
2019-03-29T08:53:13.889Z,33.65
2019-03-29T08:53:14.613Z,33.61
2019-03-29T08:53:15.336Z,33.61
2019-03-29T08:53:16.046Z,33.55
2019-03-29T08:53:16.763Z,33.55
2019-03-29T08:53:17.477Z,33.60
2019-03-29T08:53:18.203Z,33.51
2019-03-29T08:53:18.920Z,33.61
2019-03-29T08:53:19.643Z,33.57
2019-03-29T08:53:20.386Z,33.57
2019-03-29T08:53:21.101Z,33.55
2019-03-29T08:53:21.811Z,33.64
2019-03-29T08:53:22.532Z,33.62
2019-03-29T08:53:23.254Z,33.64
2019-03-29T08:53:27.212Z,33.64
2019-03-29T08:53:28.212Z,33.58
2019-03-29T08:53:28.937Z,33.57
2019-03-29T08:53:29.699Z,33.57
2019-03-29T08:53:30.413Z,33.54
2019-03-29T08:53:31.139Z,33.49
2019-03-29T08:53:31.854Z,33.51
2019-03-29T08:53:32.566Z,33.54
2019-03-29T08:53:33.280Z,33.55
2019-03-29T08:53:33.991Z,33.50
2019-03-29T08:53:34.702Z,33.53
2019-03-29T08:53:35.422Z,33.51
2019-03-29T08:53:36.137Z,33.45
2019-03-29T08:53:36.870Z,33.37
2019-03-29T08:53:37.593Z,33.33
2019-03-29T08:53:38.310Z,33.31
2019-03-29T08:53:39.037Z,33.27
2019-03-29T08:53:39.757Z,33.20
2019-03-29T08:53:40.468Z,33.20
2019-03-29T08:53:41.190Z,33.08
2019-03-29T08:53:41.998Z,33.05
2019-03-29T08:53:42.723Z,33.06
2019-03-29T08:53:43.438Z,33.03
2019-03-29T08:53:44.168Z,32.99
2019-03-29T08:53:44.912Z,33.01
2019-03-29T08:53:45.640Z,32.98
2019-03-29T08:53:46.362Z,32.97
2019-03-29T08:53:47.083Z,32.97
2019-03-29T08:53:47.795Z,32.96
2019-03-29T08:53:48.517Z,32.97
2019-03-29T08:53:49.233Z,32.94
2019-03-29T08:53:49.952Z,32.88
2019-03-29T08:53:50.672Z,32.93
2019-03-29T08:53:51.401Z,32.91
2019-03-29T08:53:52.110Z,32.97
2019-03-29T08:53:52.831Z,32.97
2019-03-29T08:53:53.548Z,32.96
2019-03-29T08:53:54.263Z,33.04
2019-03-29T08:53:54.987Z,33.07
2019-03-29T08:53:55.703Z,33.11
2019-03-29T08:53:56.422Z,33.12
2019-03-29T08:53:57.147Z,33.15
2019-03-29T08:53:57.864Z,33.19
2019-03-29T08:53:58.574Z,33.20
2019-03-29T08:53:59.298Z,33.18
2019-03-29T08:54:00.014Z,33.15
2019-03-29T08:54:00.750Z,33.21
2019-03-29T08:54:01.478Z,33.17
2019-03-29T08:54:02.190Z,33.21
2019-03-29T08:54:02.924Z,33.18
2019-03-29T08:54:03.644Z,33.15
2019-03-29T08:54:04.367Z,33.19
2019-03-29T08:54:05.101Z,33.24
2019-03-29T08:54:05.853Z,33.17
2019-03-29T08:54:06.568Z,33.22
2019-03-29T08:54:07.289Z,33.18
2019-03-29T08:54:07.997Z,33.21
2019-03-29T08:54:08.717Z,33.19
2019-03-29T08:54:09.432Z,33.20
2019-03-29T08:54:10.168Z,33.21
2019-03-29T08:54:10.923Z,33.19
2019-03-29T08:54:11.645Z,33.21
2019-03-29T08:54:12.359Z,33.25
2019-03-29T08:54:13.083Z,33.22
2019-03-29T08:54:13.801Z,33.21
2019-03-29T08:54:14.545Z,33.25
2019-03-29T08:54:15.363Z,33.23
2019-03-29T08:54:16.101Z,33.26
2019-03-29T08:54:16.833Z,33.24
2019-03-29T08:54:17.555Z,33.22
2019-03-29T08:54:18.285Z,33.28
2019-03-29T08:54:19.009Z,33.24
2019-03-29T08:54:19.735Z,33.21
2019-03-29T08:54:20.464Z,33.24
2019-03-29T08:54:21.182Z,33.24
2019-03-29T08:54:21.901Z,33.26
2019-03-29T08:54:22.615Z,33.21
2019-03-29T08:54:23.330Z,33.24
2019-03-29T08:54:24.071Z,33.26
2019-03-29T08:54:24.813Z,33.29
2019-03-29T08:54:25.533Z,33.31
2019-03-29T08:54:26.244Z,33.29
2019-03-29T08:54:27.050Z,33.32
2019-03-29T08:54:27.764Z,33.35
2019-03-29T08:54:28.485Z,33.35
2019-03-29T08:54:29.208Z,33.37
2019-03-29T08:54:29.917Z,33.41
2019-03-29T08:54:30.634Z,33.41
2019-03-29T08:54:31.366Z,33.36
2019-03-29T08:54:32.131Z,33.39
2019-03-29T08:54:32.859Z,33.45
2019-03-29T08:54:33.586Z,33.46
2019-03-29T08:54:34.298Z,33.45
2019-03-29T08:54:35.057Z,33.51
2019-03-29T08:54:35.776Z,33.45
2019-03-29T08:54:36.490Z,33.47
2019-03-29T08:54:37.210Z,33.48
2019-03-29T08:54:37.924Z,33.46
2019-03-29T08:54:38.644Z,33.52
2019-03-29T08:54:39.382Z,33.49
2019-03-29T08:54:40.094Z,33.53
2019-03-29T08:54:40.813Z,33.52
2019-03-29T08:54:41.539Z,33.51
2019-03-29T08:54:42.268Z,33.53
2019-03-29T08:54:42.980Z,33.45
2019-03-29T08:54:43.705Z,33.56
2019-03-29T08:54:44.423Z,33.59
2019-03-29T08:54:45.147Z,33.51
2019-03-29T08:54:45.866Z,33.51
2019-03-29T08:54:46.587Z,33.57
2019-03-29T08:54:48.387Z,33.56
2019-03-29T08:54:51.600Z,33.56
2019-03-29T08:54:52.325Z,33.56
2019-03-29T08:54:53.048Z,33.57
2019-03-29T08:54:53.779Z,33.62
2019-03-29T08:54:54.502Z,33.62
2019-03-29T08:54:55.265Z,33.57
2019-03-29T08:54:55.985Z,33.59
2019-03-29T08:54:56.697Z,33.56
2019-03-29T08:54:57.456Z,33.60
2019-03-29T08:54:58.165Z,33.57
2019-03-29T08:54:58.890Z,33.60
2019-03-29T08:54:59.608Z,33.67
2019-03-29T08:55:00.441Z,33.63
2019-03-29T08:55:01.175Z,33.67
2019-03-29T08:55:01.985Z,33.73
2019-03-29T08:55:02.709Z,33.74
2019-03-29T08:55:03.468Z,33.77
2019-03-29T08:55:04.189Z,33.76
2019-03-29T08:55:04.924Z,33.77
2019-03-29T08:55:05.655Z,33.76
2019-03-29T08:55:06.373Z,33.84
2019-03-29T08:55:07.091Z,33.79
2019-03-29T08:55:07.799Z,33.84
2019-03-29T08:55:08.513Z,33.83
2019-03-29T08:55:09.248Z,33.80
2019-03-29T08:55:09.972Z,33.84
2019-03-29T08:55:10.697Z,33.80
2019-03-29T08:55:11.425Z,33.79
2019-03-29T08:55:12.191Z,33.82
2019-03-29T08:55:12.923Z,33.82
2019-03-29T08:55:17.140Z,33.84
2019-03-29T08:55:18.342Z,33.86
2019-03-29T08:55:19.095Z,33.83
2019-03-29T08:55:19.812Z,33.84
2019-03-29T08:55:20.533Z,33.80
2019-03-29T08:55:21.266Z,33.80
2019-03-29T08:55:22.009Z,33.83
2019-03-29T08:55:22.734Z,33.83
2019-03-29T08:55:23.481Z,33.84
2019-03-29T08:55:24.238Z,33.86
2019-03-29T08:55:24.963Z,33.87
2019-03-29T08:55:25.708Z,33.83
2019-03-29T08:55:26.428Z,33.87
2019-03-29T08:55:27.147Z,33.87
2019-03-29T08:55:27.867Z,33.90
2019-03-29T08:55:28.583Z,33.83
2019-03-29T08:55:29.303Z,33.80
2019-03-29T08:55:30.024Z,33.76
2019-03-29T08:55:44.682Z,33.70
2019-03-29T08:55:45.513Z,33.57
2019-03-29T09:01:32.469Z,32.63
2019-03-29T09:01:33.181Z,32.42
2019-03-29T09:01:33.916Z,32.40
2019-03-29T09:01:34.645Z,32.41
2019-03-29T09:01:35.384Z,32.40
2019-03-29T09:01:36.111Z,32.45
2019-03-29T09:01:36.845Z,32.43
2019-03-29T09:01:37.557Z,32.40
2019-03-29T09:01:38.281Z,32.38
2019-03-29T09:01:39.002Z,32.35
2019-03-29T09:01:39.749Z,32.38
2019-03-29T09:01:40.481Z,32.38
2019-03-29T09:01:41.351Z,32.40
2019-03-29T09:01:42.105Z,32.37
2019-03-29T09:01:42.834Z,32.34
2019-03-29T09:01:43.551Z,32.31
2019-03-29T09:01:44.266Z,32.29
2019-03-29T09:01:44.990Z,32.27
2019-03-29T09:01:45.720Z,32.24
2019-03-29T09:01:46.444Z,32.25
2019-03-29T09:01:47.156Z,32.25
2019-03-29T09:01:47.876Z,32.31
2019-03-29T09:01:48.594Z,32.34
2019-03-29T09:01:49.330Z,32.38
2019-03-29T09:01:50.053Z,32.47
2019-03-29T09:01:50.794Z,32.63
2019-03-29T09:01:51.526Z,32.81
2019-03-29T09:01:52.265Z,32.75
2019-03-29T09:01:53.002Z,32.73
2019-03-29T09:01:53.770Z,32.61
2019-03-29T09:01:54.491Z,32.61
2019-03-29T09:01:55.212Z,32.51
2019-03-29T09:01:55.929Z,32.44
2019-03-29T09:01:56.671Z,32.43
2019-03-29T09:01:57.417Z,32.44
2019-03-29T09:01:58.137Z,32.38
2019-03-29T09:01:58.870Z,32.40
2019-03-29T09:01:59.602Z,32.41
2019-03-29T09:02:00.372Z,32.39
2019-03-29T09:02:01.104Z,32.37
2019-03-29T09:02:01.826Z,32.26
2019-03-29T09:02:02.541Z,32.24
2019-03-29T09:02:03.261Z,32.23
2019-03-29T09:02:03.998Z,32.22
2019-03-29T09:02:04.721Z,32.19
2019-03-29T09:02:05.449Z,32.17
2019-03-29T09:02:06.183Z,32.13
2019-03-29T09:02:06.908Z,32.15
2019-03-29T09:02:07.635Z,32.12
2019-03-29T09:02:08.353Z,32.12
2019-03-29T09:02:09.066Z,32.10
2019-03-29T09:02:09.788Z,32.09
2019-03-29T09:02:10.500Z,32.05
2019-03-29T09:02:11.212Z,32.08
2019-03-29T09:02:11.948Z,32.03
2019-03-29T09:02:12.670Z,32.03
2019-03-29T09:02:13.392Z,31.99
2019-03-29T09:02:14.114Z,31.99
2019-03-29T09:02:14.830Z,32.08
2019-03-29T09:02:15.552Z,32.22
2019-03-29T09:02:16.355Z,32.39
2019-03-29T09:02:17.078Z,32.48
2019-03-29T09:02:17.814Z,32.45
2019-03-29T09:02:18.536Z,32.41
2019-03-29T09:02:19.265Z,32.34
2019-03-29T09:02:19.990Z,32.30
2019-03-29T09:02:20.714Z,32.24
2019-03-29T09:02:24.788Z,32.17
2019-03-29T09:02:25.869Z,32.06
2019-03-29T09:02:26.585Z,32.08
2019-03-29T09:02:27.309Z,32.10
2019-03-29T09:02:28.031Z,32.08
2019-03-29T09:02:28.791Z,32.02
2019-03-29T09:02:29.583Z,31.98
2019-03-29T09:02:30.346Z,31.96
2019-03-29T09:02:31.062Z,31.99
2019-03-29T09:02:31.797Z,32.09
2019-03-29T09:02:32.588Z,32.34
2019-03-29T09:02:33.441Z,32.47
2019-03-29T09:02:34.167Z,32.67
2019-03-29T09:02:34.884Z,32.74
2019-03-29T09:02:35.664Z,32.74
2019-03-29T09:02:36.402Z,32.63
2019-03-29T09:02:37.125Z,32.58
2019-03-29T09:02:37.842Z,32.54
2019-03-29T09:02:38.572Z,32.54
2019-03-29T09:02:39.291Z,32.54
2019-03-29T09:02:40.027Z,32.74
2019-03-29T09:02:40.737Z,33.26
2019-03-29T09:02:41.464Z,33.71
2019-03-29T09:02:42.197Z,33.87
2019-03-29T09:02:42.914Z,33.64
2019-03-29T09:02:43.633Z,33.41
2019-03-29T09:02:44.387Z,33.19
2019-03-29T09:02:45.104Z,32.96
2019-03-29T09:02:45.826Z,32.91
2019-03-29T09:02:46.540Z,32.84
2019-03-29T09:02:47.260Z,32.76
2019-03-29T09:02:47.991Z,32.64
2019-03-29T09:02:48.705Z,32.62
2019-03-29T09:02:49.425Z,32.48
2019-03-29T09:02:50.139Z,32.45
2019-03-29T09:02:50.863Z,32.37
2019-03-29T09:02:51.606Z,32.32
2019-03-29T09:02:52.335Z,32.22
2019-03-29T09:02:53.056Z,32.21
2019-03-29T09:02:53.780Z,32.16
2019-03-29T09:02:54.503Z,32.12
2019-03-29T09:02:55.232Z,32.09
2019-03-29T09:02:55.952Z,32.11
2019-03-29T09:02:56.674Z,32.10
2019-03-29T09:02:57.390Z,32.07
2019-03-29T09:02:58.199Z,32.01
2019-03-29T09:02:58.928Z,32.00
2019-03-29T09:02:59.645Z,31.92
2019-03-29T09:03:00.369Z,31.89
2019-03-29T09:03:01.115Z,31.83
2019-03-29T09:03:01.835Z,31.85
2019-03-29T09:03:02.559Z,31.85
2019-03-29T09:03:03.345Z,31.76
2019-03-29T09:03:04.199Z,31.75
2019-03-29T09:03:04.951Z,31.80
2019-03-29T09:03:05.678Z,31.75
2019-03-29T09:03:06.405Z,31.78
2019-03-29T09:03:07.143Z,31.77
2019-03-29T09:03:07.865Z,31.76
2019-03-29T09:03:08.667Z,31.76
2019-03-29T09:03:09.397Z,31.76
2019-03-29T09:03:10.112Z,31.83
2019-03-29T09:03:10.846Z,31.84
2019-03-29T09:03:11.559Z,31.87
2019-03-29T09:03:12.275Z,31.88
2019-03-29T09:03:12.991Z,31.90
2019-03-29T09:03:13.705Z,31.95
2019-03-29T09:03:14.423Z,31.90
2019-03-29T09:03:15.152Z,31.97
2019-03-29T09:03:15.866Z,31.97
2019-03-29T09:03:16.581Z,31.98
2019-03-29T09:03:17.293Z,32.00
2019-03-29T09:03:18.013Z,32.00
2019-03-29T09:03:18.791Z,32.05
2019-03-29T09:03:19.512Z,32.04
2019-03-29T09:03:20.227Z,32.05
2019-03-29T09:03:20.940Z,32.04
2019-03-29T09:03:21.662Z,32.02
2019-03-29T09:03:22.384Z,31.97
2019-03-29T09:03:23.111Z,31.97
2019-03-29T09:03:23.831Z,31.94
2019-03-29T09:03:24.553Z,31.91
2019-03-29T09:03:25.276Z,31.87
2019-03-29T09:03:26.011Z,31.93
2019-03-29T09:03:26.731Z,31.94
2019-03-29T09:03:27.454Z,31.94
2019-03-29T09:03:28.186Z,32.03
2019-03-29T09:03:28.911Z,32.09
2019-03-29T09:03:29.636Z,32.15
2019-03-29T09:03:30.358Z,32.41
2019-03-29T09:03:31.105Z,33.05
2019-03-29T09:03:31.841Z,33.50
2019-03-29T09:03:32.581Z,33.69
2019-03-29T09:03:33.298Z,33.59
2019-03-29T09:03:34.020Z,33.43
2019-03-29T09:03:34.747Z,33.23
2019-03-29T09:03:35.474Z,33.09
2019-03-29T09:03:36.193Z,32.98
2019-03-29T09:03:36.925Z,32.90
2019-03-29T09:03:37.642Z,32.72
2019-03-29T09:03:38.370Z,32.66
2019-03-29T09:03:39.098Z,32.57
2019-03-29T09:03:39.824Z,32.52
2019-03-29T09:03:40.549Z,32.49
2019-03-29T09:03:41.283Z,32.41
2019-03-29T09:03:42.011Z,32.45
2019-03-29T09:03:42.743Z,32.50
2019-03-29T09:03:43.470Z,32.52
2019-03-29T09:03:44.185Z,32.46
2019-03-29T09:03:44.990Z,32.47
2019-03-29T09:03:55.221Z,32.50
2019-03-29T09:04:04.587Z,32.42
2019-03-29T09:04:35.198Z,33.1441
2019-03-29T09:04:35.939Z,33.0297
2019-03-29T09:04:36.667Z,33.0327
2019-03-29T09:04:37.389Z,32.9747
2019-03-29T09:04:38.118Z,32.9915
2019-03-29T09:04:38.843Z,32.9747
2019-03-29T09:04:39.560Z,32.8786
2019-03-29T09:04:40.349Z,32.9061
2019-03-29T09:04:41.102Z,32.8176
2019-03-29T09:04:41.832Z,32.8099
2019-03-29T09:04:42.568Z,32.8191
2019-03-29T09:04:43.294Z,32.7810
2019-03-29T09:04:44.019Z,32.7916
2019-03-29T09:04:44.741Z,32.7504
2019-03-29T09:04:45.471Z,32.7504
2019-03-29T09:04:46.191Z,32.7489
2019-03-29T09:04:46.910Z,32.7352
2019-03-29T09:04:47.642Z,32.8084
2019-03-29T09:04:48.365Z,32.8359
2019-03-29T09:04:49.088Z,32.7764
2019-03-29T09:04:49.802Z,32.8084
2019-03-29T09:04:50.520Z,32.7626
2019-03-29T09:04:51.264Z,32.7626
2019-03-29T09:04:51.979Z,32.8191
2019-03-29T09:04:52.704Z,32.8054
2019-03-29T09:04:53.424Z,32.8084
2019-03-29T09:04:54.185Z,32.8191
2019-03-29T09:04:54.916Z,32.8786
2019-03-29T09:04:55.644Z,32.8786
2019-03-29T09:04:56.375Z,32.8603
2019-03-29T09:04:57.098Z,32.9061
2019-03-29T09:04:57.888Z,32.9198
2019-03-29T09:04:58.619Z,32.8634
2019-03-29T09:04:59.354Z,32.9335
2019-03-29T09:05:00.096Z,32.9458
2019-03-29T09:05:00.986Z,32.9610
2019-03-29T09:05:01.737Z,32.9885
2019-03-29T09:05:02.466Z,33.1029
2019-03-29T09:05:03.178Z,33.0739
2019-03-29T09:05:03.907Z,33.1167
2019-03-29T09:05:04.641Z,33.1579
2019-03-29T09:05:05.358Z,33.1746
2019-03-29T09:05:06.074Z,33.1762
2019-03-29T09:05:06.805Z,33.1853
2019-03-29T09:05:07.555Z,33.2021
2019-03-29T09:05:08.280Z,33.1884
2019-03-29T09:05:09.000Z,33.2128
2019-03-29T09:05:09.720Z,33.1884
2019-03-29T09:05:10.440Z,33.2433
2019-03-29T09:05:11.165Z,33.2723
2019-03-29T09:05:11.894Z,33.2708
2019-03-29T09:05:12.614Z,33.2891
2019-03-29T09:05:13.402Z,33.2586
2019-03-29T09:05:14.129Z,33.3166
2019-03-29T09:05:14.858Z,33.3272
2019-03-29T09:05:15.584Z,33.2860
2019-03-29T09:05:16.312Z,33.2570
2019-03-29T09:05:17.030Z,33.3272
2019-03-29T09:05:17.758Z,33.2860
2019-03-29T09:05:18.494Z,33.3272
2019-03-29T09:05:19.210Z,33.3166
2019-03-29T09:05:19.926Z,33.3715
2019-03-29T09:05:20.663Z,33.3715
2019-03-29T09:05:21.375Z,33.3684
2019-03-29T09:05:22.090Z,33.2998
2019-03-29T09:05:22.808Z,33.3272
2019-03-29T09:05:23.522Z,33.3410
2019-03-29T09:05:24.237Z,33.3684
2019-03-29T09:05:24.965Z,33.3547
2019-03-29T09:05:25.678Z,33.3120
2019-03-29T09:05:26.395Z,33.3959
2019-03-29T09:05:27.110Z,33.3959
2019-03-29T09:05:27.834Z,33.3822
2019-03-29T09:05:28.550Z,33.3257
2019-03-29T09:05:29.260Z,33.4264
2019-03-29T09:05:29.987Z,33.3822
2019-03-29T09:05:30.705Z,33.4096
2019-03-29T09:05:31.419Z,33.3822
2019-03-29T09:05:32.131Z,33.3532
2019-03-29T09:05:32.853Z,33.4401
2019-03-29T09:05:33.569Z,33.4539
2019-03-29T09:05:34.287Z,33.4218
2019-03-29T09:05:35.003Z,33.4676
2019-03-29T09:05:39.035Z,33.4783
2019-03-29T09:05:40.049Z,33.6339
2019-03-29T09:05:40.770Z,33.6202
2019-03-29T09:05:41.485Z,33.6477
2019-03-29T09:05:42.199Z,33.5912
2019-03-29T09:05:42.914Z,33.5790
2019-03-29T09:05:43.639Z,33.5790
2019-03-29T09:05:44.354Z,33.6095
2019-03-29T09:05:45.067Z,33.6065
2019-03-29T09:05:45.785Z,33.6507
2019-03-29T09:05:46.508Z,33.6095
2019-03-29T09:05:47.239Z,33.6339
2019-03-29T09:05:47.957Z,33.6645
2019-03-29T09:05:48.678Z,33.6202
2019-03-29T09:05:49.403Z,33.6187
2019-03-29T09:05:50.121Z,33.6202
2019-03-29T09:05:50.834Z,33.6919
2019-03-29T09:05:51.550Z,33.6751
2019-03-29T09:05:52.275Z,33.6782
2019-03-29T09:05:52.989Z,33.6645
2019-03-29T09:05:53.712Z,33.6477
2019-03-29T09:05:54.438Z,33.6065
2019-03-29T09:05:55.154Z,33.6919
2019-03-29T09:05:55.888Z,33.6339
2019-03-29T09:05:56.609Z,33.6919
2019-03-29T09:05:57.323Z,33.6751
2019-03-29T09:05:58.048Z,33.6614
2019-03-29T09:05:58.763Z,33.7026
2019-03-29T09:05:59.483Z,33.6736
2019-03-29T09:06:00.207Z,33.6736
2019-03-29T09:06:00.926Z,33.6919
2019-03-29T09:06:01.639Z,33.6477
2019-03-29T09:06:02.360Z,33.6873
2019-03-29T09:06:03.086Z,33.7194
2019-03-29T09:06:03.809Z,33.6461
2019-03-29T09:06:04.524Z,33.6889
2019-03-29T09:06:05.243Z,33.6614
2019-03-29T09:06:05.975Z,33.6339
2019-03-29T09:06:06.692Z,33.5775
2019-03-29T09:06:07.428Z,33.5882
2019-03-29T09:06:08.146Z,33.4768
2019-03-29T09:06:08.866Z,33.4630
2019-03-29T09:06:09.582Z,33.4188
2019-03-29T09:06:10.308Z,33.3913
2019-03-29T09:06:11.069Z,33.3913
2019-03-29T09:06:11.794Z,33.3074
2019-03-29T09:06:12.518Z,33.3455
2019-03-29T09:06:13.232Z,33.3318
2019-03-29T09:06:13.957Z,33.2769
2019-03-29T09:06:14.669Z,33.2631
2019-03-29T09:06:15.457Z,33.2906
2019-03-29T09:06:16.172Z,33.3318
2019-03-29T09:06:16.898Z,33.3730
2019-03-29T09:06:17.632Z,33.4325
2019-03-29T09:06:18.347Z,33.3867
2019-03-29T09:06:19.064Z,33.4325
2019-03-29T09:06:19.778Z,33.3303
2019-03-29T09:06:20.506Z,33.3303
2019-03-29T09:06:21.216Z,33.2616
2019-03-29T09:06:21.932Z,33.2448
2019-03-29T09:06:22.651Z,33.2204
2019-03-29T09:06:23.371Z,33.1441
2019-03-29T09:06:24.090Z,33.1716
2019-03-29T09:06:24.809Z,33.1609
2019-03-29T09:06:25.546Z,33.1334
2019-03-29T09:06:26.340Z,33.0983
2019-03-29T09:06:30.055Z,33.0327
2019-03-29T09:06:31.145Z,33.0144
2019-03-29T09:06:31.861Z,32.9839
2019-03-29T09:06:32.620Z,33.0846
2019-03-29T09:06:33.333Z,33.0434
2019-03-29T09:06:34.052Z,33.0434
2019-03-29T09:06:34.770Z,33.0327
2019-03-29T09:06:35.497Z,33.0297
2019-03-29T09:06:36.242Z,33.0571
2019-03-29T09:06:36.963Z,33.0434
2019-03-29T09:06:37.678Z,33.0983
2019-03-29T09:06:52.114Z,33.0571
2019-03-29T09:06:53.155Z,33.1304
2019-03-29T09:06:53.616Z,33.0983
2019-03-29T09:06:54.659Z,33.0419
2019-03-29T09:06:55.379Z,33.0663
2019-03-29T09:06:56.094Z,33.0571
2019-03-29T09:06:56.809Z,33.0556
2019-03-29T09:06:57.528Z,33.0709
2019-03-29T09:06:58.256Z,33.0983
2019-03-29T09:06:58.970Z,33.0968
2019-03-29T09:06:59.683Z,33.0419
2019-03-29T09:07:00.402Z,33.0968
2019-03-29T09:07:01.122Z,33.0968
2019-03-29T09:07:01.841Z,33.0297
2019-03-29T09:07:02.555Z,33.0556
2019-03-29T09:07:03.272Z,33.0663
2019-03-29T09:07:03.998Z,33.1121
2019-03-29T09:07:04.730Z,33.1289
2019-03-29T09:07:05.454Z,33.1106
2019-03-29T09:07:06.177Z,33.1106
2019-03-29T09:07:06.892Z,33.1121
2019-03-29T09:07:07.606Z,33.1121
2019-03-29T09:07:08.319Z,33.1289
2019-03-29T09:07:09.041Z,33.0831
2019-03-29T09:07:09.761Z,33.0846
2019-03-29T09:07:10.505Z,33.1289
2019-03-29T09:07:11.223Z,33.1289
2019-03-29T09:07:11.948Z,33.0846
2019-03-29T09:07:12.690Z,33.1395
2019-03-29T09:07:13.411Z,33.0968
2019-03-29T09:07:14.158Z,33.0968
2019-03-29T09:07:14.904Z,33.1258
2019-03-29T09:07:15.621Z,33.1395
2019-03-29T09:07:16.336Z,33.1289
2019-03-29T09:07:17.063Z,33.1670
2019-03-29T09:07:17.798Z,33.1655
2019-03-29T09:07:18.520Z,33.1838
2019-03-29T09:07:19.240Z,33.1579
2019-03-29T09:07:19.957Z,33.1533
2019-03-29T09:07:20.761Z,33.1533
2019-03-29T09:07:21.498Z,33.1395
2019-03-29T09:07:22.220Z,33.1701
2019-03-29T09:07:22.953Z,33.1945
2019-03-29T09:07:23.677Z,33.2113
2019-03-29T09:07:24.419Z,33.1838
2019-03-29T09:07:27.955Z,33.2250
2019-03-29T09:07:28.867Z,33.2815
2019-03-29T09:07:43.594Z,33.2677
2019-03-29T09:07:44.621Z,33.2387
2019-03-29T09:07:44.849Z,33.2494
2019-03-29T09:07:45.883Z,33.2937
2019-03-29T09:07:46.632Z,33.2082
2019-03-29T09:07:47.381Z,33.2250
2019-03-29T09:07:48.105Z,33.3227
2019-03-29T09:07:48.833Z,33.2357
2019-03-29T09:07:49.557Z,33.2662
2019-03-29T09:07:50.280Z,33.2357
2019-03-29T09:07:51.014Z,33.2219
2019-03-29T09:07:51.732Z,33.2219
2019-03-29T09:07:52.452Z,33.2082
2019-03-29T09:07:53.177Z,33.1930
2019-03-29T09:07:53.903Z,33.1945
2019-03-29T09:07:54.626Z,33.2082
2019-03-29T09:07:55.357Z,33.1655
2019-03-29T09:07:56.075Z,33.1075
2019-03-29T09:07:56.793Z,33.1518
2019-03-29T09:07:57.520Z,33.1655
2019-03-29T09:07:58.243Z,33.1655
2019-03-29T09:07:58.970Z,33.1930
2019-03-29T09:07:59.683Z,33.1930
2019-03-29T09:08:00.407Z,33.1624
2019-03-29T09:08:01.126Z,33.1533
2019-03-29T09:08:01.849Z,33.1930
2019-03-29T09:08:02.565Z,33.1533
2019-03-29T09:08:03.282Z,33.1624
2019-03-29T09:08:04.002Z,33.1624
2019-03-29T09:08:04.720Z,33.1838
2019-03-29T09:08:05.451Z,33.1807
2019-03-29T09:08:06.167Z,33.1380
2019-03-29T09:08:06.885Z,33.1624
2019-03-29T09:08:07.617Z,33.1930
2019-03-29T09:08:08.332Z,33.1792
2019-03-29T09:08:09.071Z,33.1350
2019-03-29T09:08:09.806Z,33.2067
2019-03-29T09:08:10.534Z,33.2067
2019-03-29T09:08:11.258Z,33.1807
2019-03-29T09:08:11.983Z,33.2082
2019-03-29T09:08:12.697Z,33.2387
2019-03-29T09:08:13.423Z,33.2662
2019-03-29T09:08:14.186Z,33.2357
2019-03-29T09:08:14.901Z,33.2219
2019-03-29T09:08:15.708Z,33.2357
2019-03-29T09:08:16.441Z,33.2357
2019-03-29T09:08:17.165Z,33.2219
2019-03-29T09:08:17.912Z,33.2494
2019-03-29T09:08:18.648Z,33.2799